Time;durP1;ratioP1;P1;durP2;ratioP2;P2;SDS_P1;SDS_P2;PMS_P1;PMS_P2;Temp;Humidity;BMP_temperature;BMP_pressure;BME280_temperature;BME280_humidity;BME280_pressure;Samples;Min_cycle;Max_cycle;Signal;HPM_P1;HPM_P2
2022/12/04 00:01:45;;;;;;;51.07;19.87;;;;;;;-141.97;100.00;47830.47;4965769;28;20167;-90
2022/12/04 00:04:11;;;;;;;50.57;20.00;;;;;;;-141.97;100.00;47740.13;4980947;28;20164;-90
2022/12/04 00:06:36;;;;;;;54.63;20.07;;;;;;;-141.97;100.00;47832.38;4968278;28;20645;-89
2022/12/04 00:09:02;;;;;;;51.93;20.80;;;;;;;-141.97;100.00;47884.28;4984912;28;20175;-89
2022/12/04 00:11:29;;;;;;;49.43;19.70;;;;;;;-141.97;100.00;47903.50;4962907;28;20180;-90
2022/12/04 00:13:56;;;;;;;49.03;19.77;;;;;;;-141.97;100.00;47895.81;4955706;28;20199;-90
2022/12/04 00:16:24;;;;;;;59.10;20.60;;;;;;;-141.97;100.00;47836.22;4955555;28;20209;-89
2022/12/04 00:18:50;;;;;;;55.80;20.63;;;;;;;-141.97;100.00;47963.09;4974985;28;20183;-90
2022/12/04 00:21:17;;;;;;;54.87;19.83;;;;;;;-141.97;100.00;47782.41;4992902;28;20178;-90
2022/12/04 00:23:43;;;;;;;54.77;20.73;;;;;;;-141.97;100.00;47882.38;4974421;28;20238;-91
2022/12/04 00:26:15;;;;;;;57.10;19.70;;;;;;;-141.97;100.00;47893.91;4993146;28;20298;-88
2022/12/04 00:28:41;;;;;;;62.70;21.33;;;;;;;-141.97;100.00;47934.25;4961547;28;20218;-89
2022/12/04 00:31:09;;;;;;;59.27;19.73;;;;;;;-141.97;100.00;47991.94;4975267;28;20507;-88
2022/12/04 00:33:35;;;;;;;59.70;22.83;;;;;;;-141.97;100.00;47963.09;4959643;28;20172;-88
2022/12/04 00:36:04;;;;;;;61.73;21.63;;;;;;;-141.97;100.00;47886.22;4961513;28;20179;-88
2022/12/04 00:38:30;;;;;;;61.30;21.27;;;;;;;-141.97;100.00;47980.41;4974927;28;20207;-88
2022/12/04 00:40:55;;;;;;;64.87;21.33;;;;;;;-141.97;100.00;47780.47;4978553;28;20213;-87
2022/12/04 00:43:22;;;;;;;65.80;23.07;;;;;;;-141.97;100.00;47801.63;4988998;28;20241;-88
2022/12/04 00:45:48;;;;;;;67.53;21.63;;;;;;;-141.97;100.00;47938.09;4967815;28;20175;-87
2022/12/04 00:48:14;;;;;;;58.90;21.77;;;;;;;-141.97;100.00;47980.41;4985873;28;20601;-86
2022/12/04 00:50:39;;;;;;;72.50;22.30;;;;;;;-141.97;100.00;47759.34;4999184;28;20182;-86
2022/12/04 00:53:05;;;;;;;63.10;21.80;;;;;;;-141.97;100.00;47916.97;4986966;28;20251;-88
2022/12/04 00:55:30;;;;;;;60.43;20.93;;;;;;;-141.97;100.00;47815.09;4965528;28;20267;-89
2022/12/04 00:57:56;;;;;;;63.93;21.27;;;;;;;-141.97;100.00;47961.19;4974650;28;20210;-89
2022/12/04 01:00:22;;;;;;;53.50;19.53;;;;;;;-141.97;100.00;47765.09;4984054;28;20191;-87
2022/12/04 01:02:47;;;;;;;62.40;22.30;;;;;;;-141.97;100.00;47895.81;4983516;28;20320;-88
2022/12/04 01:05:13;;;;;;;54.93;19.23;;;;;;;-141.97;100.00;47940.03;4975814;28;20175;-88
2022/12/04 01:07:38;;;;;;;51.33;19.17;;;;;;;-141.97;100.00;47953.50;4975159;28;20191;-88
2022/12/04 01:10:07;;;;;;;53.87;19.30;;;;;;;-141.97;100.00;47815.09;4974671;28;20168;-88
2022/12/04 01:12:32;;;;;;;63.73;21.20;;;;;;;-141.97;100.00;47930.41;4957276;28;20540;-89
2022/12/04 01:14:58;;;;;;;58.23;20.13;;;;;;;-141.97;100.00;47905.44;4957376;28;20231;-89
2022/12/04 01:17:23;;;;;;;58.07;20.30;;;;;;;-141.97;100.00;47757.41;4961062;28;20235;-88
2022/12/04 01:19:49;;;;;;;60.50;20.17;;;;;;;-141.97;100.00;47922.72;4980661;28;20175;-88
2022/12/04 01:22:14;;;;;;;58.80;20.57;;;;;;;-141.97;100.00;47866.97;4960965;28;20289;-89
2022/12/04 01:24:40;;;;;;;66.50;20.83;;;;;;;-141.97;100.00;47938.09;4962441;28;20179;-88
2022/12/04 01:27:06;;;;;;;66.47;20.53;;;;;;;-141.97;100.00;47899.66;4977274;28;20168;-88
2022/12/04 01:29:31;;;;;;;60.53;20.77;;;;;;;-141.97;100.00;47857.38;4969241;28;20167;-86
2022/12/04 01:31:56;;;;;;;58.23;20.00;;;;;;;-141.97;100.00;47901.59;4971468;28;20183;-87
2022/12/04 01:34:24;;;;;;;61.97;19.30;;;;;;;-141.97;100.00;47916.97;4974784;28;20246;-88
2022/12/04 01:36:49;;;;;;;56.40;18.63;;;;;;;-141.97;100.00;47911.19;4957023;28;20196;-88
2022/12/04 01:39:15;;;;;;;53.50;18.50;;;;;;;-141.97;100.00;47826.63;4956583;28;20300;-88
2022/12/04 01:41:40;;;;;;;51.40;18.17;;;;;;;-141.97;100.00;47792.03;4957148;28;20168;-88
2022/12/04 01:44:19;;;;;;;54.23;19.07;;;;;;;-141.97;100.00;47903.50;4957153;28;20176;-88
2022/12/04 01:46:53;;;;;;;53.67;17.63;;;;;;;-141.97;100.00;47817.00;4974623;28;20168;-88
2022/12/04 01:49:54;;;;;;;56.63;18.47;;;;;;;-141.97;100.00;47899.66;4978698;28;20182;-88
2022/12/04 01:52:23;;;;;;;50.80;18.30;;;;;;;-141.97;100.00;47836.22;4952855;29;20192;-89
2022/12/04 01:54:53;;;;;;;50.40;18.50;;;;;;;-141.97;100.00;47857.38;4936584;29;20200;-88
2022/12/04 01:57:21;;;;;;;53.17;18.50;;;;;;;-141.97;100.00;47903.50;4936418;29;20200;-88
2022/12/04 01:59:56;;;;;;;52.40;17.60;;;;;;;-141.97;100.00;47842.00;4936702;29;20192;-88
2022/12/04 02:02:28;;;;;;;50.63;17.07;;;;;;;-141.97;100.00;47830.47;4936282;29;20203;-88
2022/12/04 02:04:55;;;;;;;52.17;17.70;;;;;;;-141.97;100.00;47838.16;4936107;29;20173;-88
2022/12/04 02:07:20;;;;;;;49.13;18.03;;;;;;;-141.97;100.00;47930.41;4936314;29;20678;-89
2022/12/04 02:09:52;;;;;;;53.20;17.30;;;;;;;-141.97;100.00;47888.13;4936617;29;20268;-88
2022/12/04 02:12:20;;;;;;;54.57;18.53;;;;;;;-141.97;100.00;47886.22;4936574;29;20184;-87
2022/12/04 02:15:03;;;;;;;52.63;18.30;;;;;;;-141.97;100.00;47916.97;4952455;29;20267;-88
2022/12/04 02:17:43;;;;;;;52.47;18.97;;;;;;;-141.97;100.00;47884.28;4936199;29;20204;-88
2022/12/04 02:20:17;;;;;;;54.57;18.93;;;;;;;-141.97;100.00;47941.94;4936126;29;20263;-88
2022/12/04 02:23:08;;;;;;;52.50;18.73;;;;;;;-141.97;100.00;47882.38;4943243;29;20288;-87
2022/12/04 02:26:15;;;;;;;53.50;18.67;;;;;;;-141.97;100.00;47888.13;4944023;28;20195;-88
2022/12/04 02:29:01;;;;;;;49.13;17.43;;;;;;;-141.97;100.00;47778.56;4993114;28;20252;-87
2022/12/04 02:31:40;;;;;;;51.77;17.93;;;;;;;-141.97;100.00;47859.28;4993311;28;20171;-88
2022/12/04 02:34:24;;;;;;;45.80;17.27;;;;;;;-141.97;100.00;47865.06;4975312;28;20177;-87
2022/12/04 02:36:56;;;;;;;50.57;17.97;;;;;;;-141.97;100.00;47888.13;4995459;28;20207;-87
2022/12/04 02:39:29;;;;;;;49.63;17.77;;;;;;;-141.97;100.00;47818.94;4978962;28;20182;-88
2022/12/04 02:42:21;;;;;;;57.03;18.03;;;;;;;-141.97;100.00;47907.34;4992886;28;20238;-88
2022/12/04 02:44:56;;;;;;;49.73;18.60;;;;;;;-141.97;100.00;47882.38;4975843;28;20171;-88
2022/12/04 02:47:23;;;;;;;50.10;18.73;;;;;;;-141.97;100.00;47851.59;4975420;28;20189;-88
2022/12/04 02:49:55;;;;;;;55.80;18.83;;;;;;;-141.97;100.00;47832.38;4974630;28;20184;-88
2022/12/04 02:52:27;;;;;;;49.40;18.50;;;;;;;-141.97;100.00;47891.97;4992856;28;20167;-88
2022/12/04 02:54:57;;;;;;;48.67;18.43;;;;;;;-141.97;100.00;47903.50;4974847;28;20714;-90
2022/12/04 02:57:28;;;;;;;52.03;18.87;;;;;;;-141.97;100.00;47801.63;4992153;28;20205;-90
2022/12/04 02:59:56;;;;;;;50.83;18.50;;;;;;;-141.97;100.00;47884.28;4990988;28;20652;-89
2022/12/04 03:02:37;;;;;;;55.97;19.03;;;;;;;-141.97;100.00;48018.84;4975441;28;20175;-89
2022/12/04 03:05:10;;;;;;;52.00;19.10;;;;;;;-141.97;100.00;47905.44;4974913;28;20171;-89
2022/12/04 03:07:45;;;;;;;52.33;18.50;;;;;;;-141.97;100.00;47768.94;4974963;28;20163;-89
2022/12/04 03:10:17;;;;;;;52.83;19.17;;;;;;;-141.97;100.00;47853.53;4974712;28;20167;-88
2022/12/04 03:12:53;;;;;;;53.10;19.97;;;;;;;-141.97;100.00;48009.22;4981483;28;20167;-85
2022/12/04 03:15:50;;;;;;;58.20;19.43;;;;;;;-141.97;100.00;47943.88;5003713;28;20175;-88
2022/12/04 03:18:27;;;;;;;61.20;19.90;;;;;;;-141.97;100.00;47799.72;4951441;29;20220;-88
2022/12/04 03:21:07;;;;;;;56.80;20.03;;;;;;;-141.97;100.00;47899.66;4951587;29;20187;-89
2022/12/04 03:24:05;;;;;;;59.27;19.60;;;;;;;-141.97;100.00;47884.28;4951190;29;20227;-88
2022/12/04 03:26:39;;;;;;;59.87;19.40;;;;;;;-141.97;100.00;47903.50;4878968;29;20655;-88
2022/12/04 03:29:26;;;;;;;62.97;19.50;;;;;;;-141.97;100.00;47861.22;4878519;29;20763;-88
2022/12/04 03:35:18;;;;;;;56.07;20.33;;;;;;;-141.97;100.00;47930.41;5023320;23;20252;-88
2022/12/04 03:38:16;;;;;;;58.20;20.13;;;;;;;-141.97;100.00;47930.41;4974428;28;20200;-89
2022/12/04 03:40:58;;;;;;;58.50;19.60;;;;;;;-141.97;100.00;47897.75;4915704;29;20207;-89
2022/12/04 03:43:27;;;;;;;54.67;18.33;;;;;;;-141.97;100.00;47868.91;4932306;29;20272;-89
2022/12/04 03:46:09;;;;;;;56.27;19.20;;;;;;;-141.97;100.00;47918.88;4932075;29;20213;-89
2022/12/04 03:48:58;;;;;;;62.07;20.50;;;;;;;-141.97;100.00;47907.34;4932499;29;20642;-88
2022/12/04 03:51:35;;;;;;;56.47;19.07;;;;;;;-141.97;100.00;47861.22;4917292;29;20190;-87
2022/12/04 03:54:23;;;;;;;59.67;19.33;;;;;;;-141.97;100.00;47922.72;4932234;29;20595;-89
2022/12/04 03:57:02;;;;;;;52.47;18.33;;;;;;;-141.97;100.00;47999.63;4915838;29;20197;-89
2022/12/04 03:59:37;;;;;;;56.23;18.87;;;;;;;-141.97;100.00;47911.19;4915896;29;20201;-89
2022/12/04 04:02:04;;;;;;;52.90;19.53;;;;;;;-141.97;100.00;47978.47;4933121;29;20213;-89
2022/12/04 04:04:33;;;;;;;59.23;20.50;;;;;;;-141.97;100.00;47913.13;4938673;29;20185;-89
2022/12/04 04:07:26;;;;;;;53.23;19.37;;;;;;;-141.97;100.00;47984.25;4944293;29;20173;-90
2022/12/04 04:09:58;;;;;;;57.63;19.03;;;;;;;-141.97;100.00;47874.69;4939726;29;20762;-89
2022/12/04 04:12:29;;;;;;;52.83;18.97;;;;;;;-141.97;100.00;48011.16;4919860;29;20556;-89
2022/12/04 04:26:25;;;;;;;47.23;16.63;;;;;;;-141.97;100.00;47818.94;4918751;29;20597;-90
2022/12/04 04:28:50;;;;;;;48.27;17.97;;;;;;;-141.97;100.00;47884.28;4916765;29;20185;-89
2022/12/04 04:31:47;;;;;;;45.43;17.13;;;;;;;-141.97;100.00;47918.88;4917233;29;20234;-89
2022/12/04 04:34:44;;;;;;;49.53;17.87;;;;;;;-141.97;100.00;47903.50;4916490;29;20639;-89
2022/12/04 04:37:15;;;;;;;46.37;17.03;;;;;;;-141.97;100.00;47884.28;4860260;29;20216;-89
2022/12/04 04:39:49;;;;;;;47.23;17.37;;;;;;;-141.97;100.00;47913.13;4860555;29;20223;-89
2022/12/04 04:42:26;;;;;;;40.83;16.80;;;;;;;-141.97;100.00;47824.69;4846379;29;20199;-89
2022/12/04 04:45:04;;;;;;;43.20;17.27;;;;;;;-141.97;100.00;47907.34;4860046;29;20689;-89
2022/12/04 04:47:39;;;;;;;51.30;23.60;;;;;;;-141.97;100.00;47907.34;4844603;29;20219;-89
2022/12/04 04:50:09;;;;;;;51.33;19.87;;;;;;;-141.97;100.00;47978.47;4844171;29;20184;-89
2022/12/04 04:52:38;;;;;;;50.93;22.50;;;;;;;-141.97;100.00;47893.91;4859629;29;20232;-89
2022/12/04 04:55:05;;;;;;;48.90;21.10;;;;;;;-141.97;100.00;47924.66;4860610;29;20196;-90
2022/12/04 04:57:34;;;;;;;58.20;23.03;;;;;;;-141.97;100.00;47878.53;4878698;29;20224;-89
2022/12/04 05:00:01;;;;;;;49.27;18.93;;;;;;;-141.97;100.00;47853.53;4921934;29;20177;-87
2022/12/04 05:02:26;;;;;;;49.63;22.67;;;;;;;-141.97;100.00;47915.03;4921373;29;20181;-89
2022/12/04 05:04:52;;;;;;;52.00;22.43;;;;;;;-141.97;100.00;47820.84;4937171;29;20289;-88
2022/12/04 05:07:17;;;;;;;44.13;18.57;;;;;;;-141.97;100.00;47849.69;4937293;29;20566;-88
2022/12/04 05:09:43;;;;;;;42.20;16.97;;;;;;;-141.97;100.00;47845.84;4922516;29;20170;-89
2022/12/04 05:12:09;;;;;;;45.50;17.40;;;;;;;-141.97;100.00;48024.63;4919836;29;20177;-88
2022/12/04 05:14:34;;;;;;;43.93;17.17;;;;;;;-141.97;100.00;47740.13;4964901;28;20675;-90
2022/12/04 05:17:00;;;;;;;44.47;18.57;;;;;;;-141.97;100.00;47742.03;4974998;28;20208;-89
2022/12/04 05:22:09;;;;;;;38.20;16.97;;;;;;;-141.97;100.00;47982.31;4977236;28;20179;-88
2022/12/04 05:24:34;;;;;;;45.40;18.23;;;;;;;-141.97;100.00;47970.78;4976005;28;20251;-90
2022/12/04 05:27:00;;;;;;;37.43;16.10;;;;;;;-141.97;100.00;47968.88;4977846;28;20187;-87
2022/12/04 05:29:25;;;;;;;42.17;17.67;;;;;;;-141.97;100.00;47726.66;4992518;28;20639;-88
2022/12/04 05:31:50;;;;;;;41.70;17.00;;;;;;;-141.97;100.00;47943.88;4989747;28;20187;-89
2022/12/04 05:34:16;;;;;;;46.93;18.87;;;;;;;-141.97;100.00;47888.13;4991729;28;20311;-88
2022/12/04 05:36:41;;;;;;;42.80;18.30;;;;;;;-141.97;100.00;47891.97;4975822;28;20198;-87
2022/12/04 05:39:07;;;;;;;54.33;21.53;;;;;;;-141.97;100.00;47795.88;4983907;28;20637;-87
2022/12/04 05:41:32;;;;;;;47.83;19.30;;;;;;;-141.97;100.00;47805.47;4982282;28;20594;-88
2022/12/04 05:43:57;;;;;;;43.43;17.90;;;;;;;-141.97;100.00;47926.56;4977160;28;20268;-89
2022/12/04 05:46:23;;;;;;;39.13;17.00;;;;;;;-141.97;100.00;47811.25;4977728;28;20195;-88
2022/12/04 05:48:48;;;;;;;48.30;20.77;;;;;;;-141.97;100.00;47851.59;4974391;28;20215;-89
2022/12/04 05:51:14;;;;;;;49.20;20.30;;;;;;;-141.97;100.00;47734.34;4972778;28;20263;-89
2022/12/04 05:53:39;;;;;;;58.73;23.57;;;;;;;-141.97;100.00;47880.44;4972730;28;20172;-89
2022/12/04 05:56:06;;;;;;;44.37;18.07;;;;;;;-141.97;100.00;47799.72;4992066;28;20215;-90
2022/12/04 05:58:34;;;;;;;53.80;21.57;;;;;;;-141.97;100.00;47911.19;4988911;28;20191;-89
2022/12/04 06:00:59;;;;;;;52.97;21.00;;;;;;;-141.97;100.00;47765.09;4972613;28;20167;-90
2022/12/04 06:03:25;;;;;;;50.83;20.57;;;;;;;-141.97;100.00;47863.13;4973888;28;20164;-90
2022/12/04 06:05:50;;;;;;;54.37;23.77;;;;;;;-141.97;100.00;47974.63;4972566;28;20679;-89
2022/12/04 06:08:16;;;;;;;60.83;22.73;;;;;;;-141.97;100.00;47832.38;4975153;28;20168;-89
2022/12/04 06:10:41;;;;;;;52.30;21.50;;;;;;;-141.97;100.00;47822.78;4988542;28;20621;-89
2022/12/04 06:13:07;;;;;;;49.00;20.73;;;;;;;-141.97;100.00;47911.19;4972527;28;20620;-89
2022/12/04 06:15:37;;;;;;;56.37;22.40;;;;;;;-141.97;100.00;47836.22;4988912;28;20187;-89
2022/12/04 06:18:02;;;;;;;52.73;20.80;;;;;;;-141.97;100.00;47903.50;4972563;28;20215;-88
2022/12/04 06:20:28;;;;;;;54.93;21.00;;;;;;;-141.97;100.00;47909.28;4972124;28;20212;-88
2022/12/04 06:22:53;;;;;;;45.10;19.57;;;;;;;-141.97;100.00;47832.38;4972249;28;20215;-88
2022/12/04 06:25:18;;;;;;;50.77;20.07;;;;;;;-141.97;100.00;47830.47;4987888;28;20676;-89
2022/12/04 06:27:44;;;;;;;46.73;20.93;;;;;;;-141.97;100.00;47911.19;4971990;28;20160;-88
2022/12/04 06:30:09;;;;;;;44.33;19.40;;;;;;;-141.97;100.00;47972.72;4971945;28;20223;-89
2022/12/04 06:32:35;;;;;;;48.07;19.43;;;;;;;-141.97;100.00;47799.72;4972226;28;20637;-88
2022/12/04 06:35:00;;;;;;;41.70;18.33;;;;;;;-141.97;100.00;47842.00;4974993;28;20632;-88
2022/12/04 06:37:26;;;;;;;50.03;21.70;;;;;;;-141.97;100.00;47968.88;4974996;28;20206;-88
2022/12/04 06:39:51;;;;;;;46.37;19.80;;;;;;;-141.97;100.00;47903.50;4976585;28;20190;-89
2022/12/04 06:42:17;;;;;;;46.60;21.17;;;;;;;-141.97;100.00;47895.81;4976053;28;20179;-88
2022/12/04 06:44:42;;;;;;;44.83;19.43;;;;;;;-141.97;100.00;47945.81;4998844;28;20163;-84
2022/12/04 06:47:08;;;;;;;44.90;18.40;;;;;;;-141.97;100.00;47899.66;4980648;28;20175;-88
2022/12/04 06:49:35;;;;;;;41.73;18.43;;;;;;;-141.97;100.00;47836.22;4975159;28;20171;-88
2022/12/04 06:52:00;;;;;;;62.73;27.93;;;;;;;-141.97;100.00;47907.34;4975085;28;20647;-88
2022/12/04 06:54:25;;;;;;;48.47;20.30;;;;;;;-141.97;100.00;47943.88;4992225;28;20195;-88
2022/12/04 06:56:51;;;;;;;49.23;20.63;;;;;;;-141.97;100.00;47968.88;4974814;28;20203;-88
2022/12/04 06:59:16;;;;;;;44.10;18.90;;;;;;;-141.97;100.00;47784.34;4974630;28;20191;-87
2022/12/04 07:01:41;;;;;;;42.67;18.27;;;;;;;-141.97;100.00;47834.31;4992208;28;20234;-87
2022/12/04 07:04:07;;;;;;;41.07;18.33;;;;;;;-141.97;100.00;47920.81;4995943;28;20187;-92
2022/12/04 07:06:35;;;;;;;44.73;19.73;;;;;;;-141.97;100.00;47830.47;4991439;28;20179;-89
2022/12/04 07:09:03;;;;;;;49.17;22.47;;;;;;;-141.97;100.00;47822.78;4974931;28;20258;-86
2022/12/04 07:11:28;;;;;;;56.93;24.77;;;;;;;-141.97;100.00;47866.97;4974467;28;20179;-86
2022/12/04 07:13:54;;;;;;;53.33;19.33;;;;;;;-141.97;100.00;48003.47;4975003;28;20542;-86
2022/12/04 07:16:21;;;;;;;50.23;22.97;;;;;;;-141.97;100.00;47930.41;4993013;28;20302;-86
2022/12/04 07:18:49;;;;;;;45.07;19.50;;;;;;;-141.97;100.00;47984.25;4993520;28;20282;-87
2022/12/04 07:21:17;;;;;;;49.17;21.23;;;;;;;-141.97;100.00;47945.81;4993654;28;20163;-86
2022/12/04 07:23:44;;;;;;;52.80;21.50;;;;;;;-141.97;100.00;47899.66;4975970;28;20186;-86
2022/12/04 07:26:12;;;;;;;43.67;18.50;;;;;;;-141.97;100.00;47768.94;4992535;28;20159;-86
2022/12/04 07:28:38;;;;;;;47.17;20.07;;;;;;;-141.97;100.00;47940.03;4992317;28;20612;-85
2022/12/04 07:31:05;;;;;;;47.63;21.30;;;;;;;-141.97;100.00;47878.53;4990845;28;20194;-90
2022/12/04 07:33:31;;;;;;;49.77;20.90;;;;;;;-141.97;100.00;47895.81;4993070;28;20227;-88
2022/12/04 07:35:57;;;;;;;45.67;19.43;;;;;;;-141.97;100.00;48005.38;4992606;28;20206;-88
2022/12/04 07:38:23;;;;;;;45.97;20.17;;;;;;;-141.97;100.00;47842.00;4979859;28;20653;-88
2022/12/04 07:40:48;;;;;;;42.00;18.57;;;;;;;-141.97;100.00;47938.09;4981077;28;20262;-88
2022/12/04 07:43:14;;;;;;;58.13;25.17;;;;;;;-141.97;100.00;47853.53;4979006;28;20534;-85
2022/12/04 07:45:40;;;;;;;74.13;31.10;;;;;;;-141.97;100.00;47949.66;5001101;28;20651;-86
2022/12/04 07:48:05;;;;;;;42.53;18.37;;;;;;;-141.97;100.00;47920.81;4985755;28;20179;-89
2022/12/04 07:50:31;;;;;;;44.33;18.93;;;;;;;-141.97;100.00;47807.41;4978518;28;20226;-87
2022/12/04 07:52:56;;;;;;;46.37;20.00;;;;;;;-141.97;100.00;47724.75;4978442;28;20732;-85
2022/12/04 07:55:21;;;;;;;52.47;21.93;;;;;;;-141.97;100.00;47970.78;4978222;28;20176;-86
2022/12/04 07:57:47;;;;;;;54.93;22.97;;;;;;;-141.97;100.00;47745.88;4995966;28;20245;-90
2022/12/04 08:00:13;;;;;;;49.57;21.83;;;;;;;-141.97;100.00;47941.94;4979212;28;20198;-85
2022/12/04 08:02:38;;;;;;;50.00;21.67;;;;;;;-141.97;100.00;47980.41;4997479;28;20164;-86
2022/12/04 08:05:04;;;;;;;46.70;21.13;;;;;;;-141.97;100.00;47830.47;4978485;28;20632;-87
2022/12/04 08:07:29;;;;;;;47.57;21.30;;;;;;;-141.97;100.00;47940.03;4995583;28;20160;-86
2022/12/04 08:09:54;;;;;;;52.30;23.67;;;;;;;-141.97;100.00;47790.09;4995302;28;20164;-86
2022/12/04 08:12:20;;;;;;;95.90;32.63;;;;;;;-141.97;100.00;47899.66;4995245;28;20635;-86
2022/12/04 08:14:45;;;;;;;45.40;19.97;;;;;;;-141.97;100.00;47945.81;4995757;28;20512;-85
2022/12/04 08:17:10;;;;;;;44.53;18.83;;;;;;;-141.97;100.00;47832.38;4995021;28;20191;-85
2022/12/04 08:19:36;;;;;;;47.03;19.40;;;;;;;-141.97;100.00;48036.16;4995206;28;20167;-84
2022/12/04 08:22:01;;;;;;;44.53;19.17;;;;;;;-141.97;100.00;47957.34;4995209;28;20168;-85
2022/12/04 08:24:27;;;;;;;43.47;20.27;;;;;;;-141.97;100.00;47938.09;4995250;28;20255;-86
2022/12/04 08:26:52;;;;;;;39.83;17.10;;;;;;;-141.97;100.00;47993.84;4977526;28;20163;-86
2022/12/04 08:29:17;;;;;;;39.67;17.53;;;;;;;-141.97;100.00;47815.09;4994076;28;20198;-86
2022/12/04 08:31:43;;;;;;;40.20;17.47;;;;;;;-141.97;100.00;47903.50;4977450;28;20175;-87
2022/12/04 08:34:08;;;;;;;44.63;17.87;;;;;;;-141.97;100.00;47949.66;4994974;28;20223;-86
2022/12/04 08:36:34;;;;;;;47.70;20.00;;;;;;;-141.97;100.00;47876.59;4993382;28;20183;-87
2022/12/04 08:38:59;;;;;;;47.30;20.47;;;;;;;-141.97;100.00;47897.75;4994703;28;20753;-86
2022/12/04 08:41:25;;;;;;;52.43;21.33;;;;;;;-141.97;100.00;47966.94;4977041;28;20612;-86
2022/12/04 08:43:53;;;;;;;43.60;19.60;;;;;;;-141.97;100.00;47907.34;4977284;28;20210;-86
2022/12/04 08:46:19;;;;;;;46.67;19.73;;;;;;;-141.97;100.00;47911.19;4979765;28;20569;-87
2022/12/04 08:48:46;;;;;;;48.43;21.27;;;;;;;-141.97;100.00;47759.34;4996009;28;20168;-87
2022/12/04 08:51:16;;;;;;;44.20;19.73;;;;;;;-141.97;100.00;47911.19;4977422;28;20190;-86
2022/12/04 08:53:42;;;;;;;37.93;16.50;;;;;;;-141.97;100.00;48005.38;4994499;28;20241;-86
2022/12/04 08:56:08;;;;;;;44.13;18.70;;;;;;;-141.97;100.00;47915.03;4994439;28;20624;-86
2022/12/04 08:58:34;;;;;;;43.90;18.73;;;;;;;-141.97;100.00;47840.06;4994225;28;20718;-86
2022/12/04 09:01:07;;;;;;;49.93;21.60;;;;;;;-141.97;100.00;47915.03;4994516;28;20167;-87
2022/12/04 09:03:33;;;;;;;48.03;21.67;;;;;;;-141.97;100.00;47903.50;4994421;28;20174;-87
2022/12/04 09:06:00;;;;;;;47.40;20.17;;;;;;;-141.97;100.00;47799.72;4994438;28;20237;-86
2022/12/04 09:08:26;;;;;;;43.90;20.30;;;;;;;-141.97;100.00;47907.34;4997044;28;20167;-87
2022/12/04 09:10:52;;;;;;;43.70;19.50;;;;;;;-141.97;100.00;47784.34;4996408;28;20163;-85
2022/12/04 09:13:17;;;;;;;36.90;15.67;;;;;;;-141.97;100.00;47915.03;4994236;28;20164;-85
2022/12/04 09:15:42;;;;;;;43.30;18.90;;;;;;;-141.97;100.00;47911.19;4993977;28;20269;-86
2022/12/04 09:18:08;;;;;;;42.30;19.17;;;;;;;-141.97;100.00;47897.75;4992653;28;20312;-86
2022/12/04 09:20:34;;;;;;;39.80;17.67;;;;;;;-141.97;100.00;47920.81;4975928;28;20175;-87
2022/12/04 09:23:01;;;;;;;38.87;17.43;;;;;;;-141.97;100.00;47943.88;4993768;28;20179;-87
2022/12/04 09:25:26;;;;;;;42.43;18.90;;;;;;;-141.97;100.00;47901.59;4982620;28;20171;-85
2022/12/04 09:27:51;;;;;;;46.40;20.53;;;;;;;-141.97;100.00;47765.09;5031409;28;20226;-85
2022/12/04 09:30:17;;;;;;;46.20;20.93;;;;;;;-141.97;100.00;47853.53;5019106;28;20262;-85
2022/12/04 09:32:42;;;;;;;51.07;21.57;;;;;;;-141.97;100.00;47792.03;5016176;28;20700;-84
2022/12/04 09:35:08;;;;;;;54.10;23.97;;;;;;;-141.97;100.00;47991.94;5035226;28;20167;-86
2022/12/04 09:37:35;;;;;;;52.90;22.63;;;;;;;-141.97;100.00;47876.59;5019047;28;20281;-86
2022/12/04 09:40:04;;;;;;;46.97;21.37;;;;;;;-141.97;100.00;47928.50;4995544;28;20627;-86
2022/12/04 09:42:53;;;;;;;54.17;21.93;;;;;;;-141.97;100.00;47891.97;4995515;28;20642;-86
2022/12/04 09:45:25;;;;;;;50.27;20.53;;;;;;;-141.97;100.00;47968.88;5013131;28;20159;-87
2022/12/04 09:47:55;;;;;;;49.77;20.50;;;;;;;-141.97;100.00;47874.69;5018966;28;20179;-85
2022/12/04 09:50:33;;;;;;;59.87;22.40;;;;;;;-141.97;100.00;47918.88;5023853;28;20167;-85
2022/12/04 09:53:02;;;;;;;50.57;22.13;;;;;;;-141.97;100.00;47922.72;5019155;28;20159;-86
2022/12/04 09:55:34;;;;;;;50.53;20.13;;;;;;;-141.97;100.00;47926.56;5013545;28;20178;-88
2022/12/04 09:58:03;;;;;;;52.70;23.37;;;;;;;-141.97;100.00;47888.13;5013374;28;20289;-87
2022/12/04 10:00:30;;;;;;;56.13;22.70;;;;;;;-141.97;100.00;47872.75;5013000;28;20243;-86
2022/12/04 10:03:05;;;;;;;89.10;36.50;;;;;;;-141.97;100.00;47872.75;5013609;28;20258;-86
2022/12/04 10:06:11;;;;;;;57.90;23.90;;;;;;;-141.97;100.00;47924.66;5013100;28;20231;-85
2022/12/04 10:08:43;;;;;;;49.57;22.53;;;;;;;-141.97;100.00;47893.91;5013260;28;20185;-87
2022/12/04 10:11:21;;;;;;;48.40;20.93;;;;;;;-141.97;100.00;47936.19;5012998;28;20634;-84
2022/12/04 10:13:58;;;;;;;37.80;17.23;;;;;;;-141.97;100.00;47878.53;5013143;28;20167;-85
2022/12/04 10:16:45;;;;;;;40.90;19.40;;;;;;;-141.97;100.00;47886.22;5013767;28;20233;-86
2022/12/04 10:19:29;;;;;;;38.83;17.13;;;;;;;-141.97;100.00;47872.75;5013073;28;20190;-86
2022/12/04 10:22:03;;;;;;;37.37;16.97;;;;;;;-141.97;100.00;47882.38;5013720;28;20248;-86
2022/12/04 10:25:07;;;;;;;41.10;20.77;;;;;;;-141.97;100.00;47945.81;5013689;28;20171;-85
2022/12/04 10:27:39;;;;;;;99.20;32.90;;;;;;;-141.97;100.00;48030.38;4933328;29;20196;-87
2022/12/04 10:30:29;;;;;;;95.67;30.03;;;;;;;-141.97;100.00;47872.75;4932039;29;20681;-87
2022/12/04 10:33:12;;;;;;;33.97;16.53;;;;;;;-141.97;100.00;48041.91;4917224;29;20329;-87
2022/12/04 10:35:42;;;;;;;31.70;15.30;;;;;;;-141.97;100.00;47861.22;4917198;29;20662;-86
2022/12/04 10:38:22;;;;;;;34.17;17.47;;;;;;;-141.97;100.00;47888.13;4932860;29;20228;-87
2022/12/04 10:40:54;;;;;;;29.13;15.80;;;;;;;-141.97;100.00;48005.38;4932483;29;20181;-86
2022/12/04 10:43:39;;;;;;;31.43;15.27;;;;;;;-141.97;100.00;47968.88;4915408;29;20196;-86
2022/12/04 10:46:06;;;;;;;34.10;17.73;;;;;;;-141.97;100.00;47903.50;4932866;29;20177;-86
2022/12/04 10:48:36;;;;;;;26.73;13.77;;;;;;;-141.97;100.00;47824.69;4932647;29;20199;-86
2022/12/04 10:51:02;;;;;;;29.97;14.27;;;;;;;-141.97;100.00;47980.41;4932266;29;20193;-86
2022/12/04 10:53:34;;;;;;;28.93;13.60;;;;;;;-141.97;100.00;47913.13;4916509;29;20193;-85
2022/12/04 10:56:14;;;;;;;30.93;13.63;;;;;;;-141.97;100.00;47915.03;4924816;29;20224;-84
2022/12/04 10:58:40;;;;;;;30.63;15.30;;;;;;;-141.97;100.00;47868.91;4897793;29;20297;-86
2022/12/04 11:01:10;;;;;;;30.20;15.10;;;;;;;-141.97;100.00;47945.81;4898283;29;20273;-86
2022/12/04 11:03:36;;;;;;;32.83;15.40;;;;;;;-141.97;100.00;47899.66;4972690;28;20706;-86
2022/12/04 11:06:05;;;;;;;30.27;15.57;;;;;;;-141.97;100.00;47918.88;4975273;28;20175;-85
2022/12/04 11:08:43;;;;;;;27.67;15.17;;;;;;;-141.97;100.00;47911.19;4976596;28;20175;-86
2022/12/04 11:11:13;;;;;;;32.30;14.23;;;;;;;-141.97;100.00;48018.84;4974166;28;20198;-85
2022/12/04 11:13:40;;;;;;;31.43;16.20;;;;;;;-141.97;100.00;47863.13;4990649;28;20164;-85
2022/12/04 11:16:06;;;;;;;27.23;15.77;;;;;;;-141.97;100.00;47880.44;4987802;28;20191;-85
2022/12/04 11:18:47;;;;;;;27.43;13.77;;;;;;;-141.97;100.00;47884.28;4992551;28;20231;-85
2022/12/04 11:21:17;;;;;;;25.70;14.37;;;;;;;-141.97;100.00;48036.16;4992015;28;20168;-85
2022/12/04 11:23:46;;;;;;;23.87;13.67;;;;;;;-141.97;100.00;47922.72;4991163;28;20562;-85
2022/12/04 11:26:13;;;;;;;32.07;17.80;;;;;;;-141.97;100.00;47801.63;4990899;28;20186;-84